| time (UTC) | temp F | wind direction | speed knots | gust knots | rain 1hr in | rain 24hr in | rain mn in | humidity % | barometer mb |
| 20260510202551 | 69 | 185 | 0.0 | 2.6 | 0.00 | 0.20 | 0.00 | 44 | 1011.2 |
| 20260510202505 | 72 | 299 | 0.9 | 2.6 | 0.00 | 0.00 | 0.00 | 43 | 1016.1 |
| 20260510202048 | 69 | 185 | 0.0 | 2.6 | 0.00 | 0.20 | 0.00 | 43 | 1011.2 |
| 20260510202009 | 72 | 293 | 0.9 | 2.6 | 0.00 | 0.00 | 0.00 | 41 | 1016.1 |
| 20260510201548 | 70 | 255 | 0.0 | 2.6 | 0.00 | 0.20 | 0.00 | 43 | 1011.1 |
| 20260510201508 | 72 | 285 | 0.9 | 2.6 | 0.00 | 0.00 | 0.00 | 40 | 1016.1 |
| 20260510201048 | 70 | 160 | 0.0 | 2.6 | 0.00 | 0.20 | 0.00 | 42 | 1011.0 |
| 20260510201006 | 72 | 217 | 0.9 | 2.6 | 0.00 | 0.00 | 0.00 | 42 | 1016.1 |
| 20260510200549 | 70 | 146 | 0.0 | 3.5 | 0.00 | 0.20 | 0.00 | 42 | 1010.9 |
| 20260510200507 | 72 | 302 | 1.7 | 3.5 | 0.00 | 0.00 | 0.00 | 39 | 1016.3 |
| 20260510200048 | 71 | 147 | 0.9 | 3.5 | 0.00 | 0.20 | 0.00 | 41 | 1011.0 |
| 20260510200014 | 72 | 139 | 0.0 | 3.5 | 0.00 | 0.00 | 0.00 | 40 | 1016.4 |
| 20260510195549 | 71 | 153 | 0.0 | 1.7 | 0.00 | 0.21 | 0.00 | 40 | 1010.9 |
| 20260510195507 | 72 | 303 | 1.7 | 3.5 | 0.00 | 0.00 | 0.00 | 39 | 1016.4 |
| 20260510195050 | 72 | 154 | 0.0 | 1.7 | 0.00 | 0.21 | 0.00 | 43 | 1011.0 |
| 20260510195007 | 72 | 296 | 0.9 | 3.5 | 0.00 | 0.00 | 0.00 | 41 | 1016.3 |
| 20260510194557 | 72 | 188 | 0.0 | 4.3 | 0.00 | 0.21 | 0.00 | 45 | 1010.9 |
| 20260510194522 | 72 | 293 | 0.9 | 3.5 | 0.00 | 0.00 | 0.00 | 45 | 1016.3 |
| 20260510194051 | 73 | 146 | 0.0 | 2.6 | 0.00 | 0.21 | 0.00 | 42 | 1010.9 |
| 20260510194007 | 72 | 299 | 0.9 | 2.6 | 0.00 | 0.00 | 0.00 | 44 | 1016.3 |
| 20260510193548 | 73 | 163 | 0.0 | 4.3 | 0.00 | 0.21 | 0.00 | 43 | 1010.9 |
| 20260510193504 | 72 | 293 | 0.9 | 2.6 | 0.00 | 0.00 | 0.00 | 42 | 1016.3 |
| 20260510193048 | 73 | 164 | 0.9 | 4.3 | 0.00 | 0.21 | 0.00 | 42 | 1010.9 |
| 20260510193005 | 72 | 292 | 0.9 | 2.6 | 0.00 | 0.00 | 0.00 | 42 | 1016.3 |
| 20260510192547 | 73 | 170 | 0.0 | 2.6 | 0.00 | 0.21 | 0.00 | 41 | 1010.8 |
| 20260510192503 | 72 | 293 | 0.9 | 4.3 | 0.00 | 0.00 | 0.00 | 47 | 1016.4 |
| 20260510192048 | 73 | 175 | 0.0 | 2.6 | 0.00 | 0.21 | 0.00 | 41 | 1010.8 |
| 20260510192004 | 71 | 288 | 1.7 | 4.3 | 0.00 | 0.00 | 0.00 | 40 | 1016.3 |
| 20260510191557 | 73 | 158 | 0.9 | 2.6 | 0.00 | 0.21 | 0.00 | 45 | 1010.9 |
| 20260510191510 | 72 | 295 | 0.9 | 2.6 | 0.00 | 0.00 | 0.00 | 41 | 1016.2 |
| 20260510191048 | 73 | 153 | 0.0 | 1.7 | 0.00 | 0.21 | 0.00 | 43 | 1010.9 |
| 20260510191008 | 72 | 298 | 0.9 | 2.6 | 0.00 | 0.00 | 0.00 | 43 | 1016.2 |
| 20260510190546 | 73 | 158 | 0.0 | 1.7 | 0.00 | 0.21 | 0.00 | 44 | 1010.9 |
| 20260510190505 | 72 | 132 | 0.9 | 1.7 | 0.00 | 0.00 | 0.00 | 39 | 1016.3 |
| 20260510190054 | 73 | 157 | 0.0 | 1.7 | 0.00 | 0.21 | 0.00 | 46 | 1010.9 |
| 20260510190013 | 72 | 294 | 0.9 | 2.6 | 0.00 | 0.00 | 0.00 | 42 | 1016.2 |
| 20260510185547 | 73 | 156 | 0.0 | 6.1 | 0.00 | 0.21 | 0.00 | 46 | 1010.9 |
| 20260510185507 | 72 | 273 | 0.0 | 2.6 | 0.00 | 0.00 | 0.00 | 43 | 1016.2 |
| 20260510185045 | 72 | 158 | 0.9 | 6.1 | 0.00 | 0.21 | 0.00 | 45 | 1010.9 |
| 20260510185011 | 72 | 284 | 0.0 | 3.5 | 0.00 | 0.00 | 0.00 | 47 | 1016.2 |
| 20260510184546 | 72 | 283 | 0.0 | 4.3 | 0.00 | 0.21 | 0.00 | 46 | 1010.9 |
| 20260510184519 | 72 | 293 | 0.9 | 3.5 | 0.00 | 0.00 | 0.00 | 46 | 1016.2 |
| 20260510184043 | 72 | 124 | 0.9 | 4.3 | 0.00 | 0.21 | 0.00 | 45 | 1010.9 |
| 20260510184011 | 72 | 98 | 0.0 | 1.7 | 0.00 | 0.00 | 0.00 | 45 | 1016.1 |
| 20260510183542 | 72 | 118 | 0.0 | 1.7 | 0.00 | 0.21 | 0.00 | 51 | 1011.0 |
| 20260510183509 | 71 | 209 | 0.0 | 1.7 | 0.00 | 0.00 | 0.00 | 41 | 1016.1 |
| 20260510183042 | 72 | 186 | 0.0 | 1.7 | 0.00 | 0.21 | 0.00 | 55 | 1011.0 |
| 20260510183023 | 71 | 300 | 0.0 | 2.6 | 0.00 | 0.00 | 0.00 | 43 | 1016.2 |
| 20260510182540 | 71 | 183 | 0.0 | 1.7 | 0.00 | 0.21 | 0.00 | 58 | 1011.2 |
| 20260510182512 | 71 | 296 | 0.9 | 2.6 | 0.00 | 0.00 | 0.00 | 46 | 1016.4 |
| 20260510182039 | 71 | 183 | 0.0 | 1.7 | 0.00 | 0.21 | 0.00 | 58 | 1011.2 |
| 20260510182003 | 71 | 293 | 0.9 | 2.6 | 0.00 | 0.00 | 0.00 | 46 | 1016.4 |
| 20260510181539 | 71 | 77 | 0.0 | 0.9 | 0.00 | 0.21 | 0.00 | 62 | 1011.1 |
| 20260510181510 | 71 | 271 | 0.9 | 2.6 | 0.00 | 0.00 | 0.00 | 50 | 1016.4 |
| 20260510181039 | 71 | 77 | 0.0 | 0.9 | 0.00 | 0.21 | 0.00 | 61 | 1011.1 |
| 20260510181004 | 71 | 233 | 0.0 | 2.6 | 0.00 | 0.00 | 0.00 | 44 | 1016.4 |
| 20260510180540 | 71 | 72 | 0.0 | 2.6 | 0.00 | 0.21 | 0.00 | 62 | 1011.1 |
| 20260510180520 | 70 | 300 | 0.0 | 2.6 | 0.00 | 0.00 | 0.00 | 40 | 1016.5 |
| 20260510180043 | 71 | 73 | 0.0 | 2.6 | 0.00 | 0.21 | 0.00 | 62 | 1011.1 |
| 20260510180013 | 71 | 299 | 1.7 | 3.5 | 0.00 | 0.00 | 0.00 | 46 | 1016.5 |
| 20260510175538 | 71 | 150 | 0.0 | 2.6 | 0.00 | 0.22 | 0.00 | 61 | 1011.0 |
| 20260510175504 | 71 | 252 | 0.9 | 3.5 | 0.00 | 0.00 | 0.00 | 44 | 1016.5 |
| 20260510175037 | 71 | 152 | 0.9 | 1.7 | 0.00 | 0.22 | 0.00 | 61 | 1011.0 |
| 20260510175006 | 71 | 307 | 0.0 | 2.6 | 0.00 | 0.00 | 0.00 | 43 | 1016.5 |
| 20260510174537 | 71 | 191 | 0.0 | 2.6 | 0.00 | 0.22 | 0.00 | 64 | 1010.9 |
| 20260510174514 | 71 | 146 | 0.9 | 3.5 | 0.00 | 0.00 | 0.00 | 50 | 1016.5 |
| 20260510174040 | 70 | 191 | 0.0 | 2.6 | 0.00 | 0.22 | 0.00 | 62 | 1011.0 |
| 20260510174014 | 71 | 129 | 1.7 | 3.5 | 0.00 | 0.00 | 0.00 | 43 | 1016.6 |
| 20260510173537 | 70 | 191 | 0.0 | 2.6 | 0.00 | 0.22 | 0.00 | 64 | 1010.8 |
| 20260510173511 | 71 | 296 | 1.7 | 2.6 | 0.00 | 0.00 | 0.00 | 46 | 1016.7 |
| 20260510173036 | 70 | 187 | 0.0 | 1.7 | 0.00 | 0.22 | 0.00 | 62 | 1010.8 |
| 20260510173019 | 71 | 145 | 0.9 | 2.6 | 0.00 | 0.00 | 0.00 | 52 | 1016.5 |
| 20260510172535 | 70 | 146 | 0.0 | 4.3 | 0.00 | 0.22 | 0.00 | 63 | 1010.9 |
| 20260510172510 | 70 | 122 | 0.9 | 2.6 | 0.00 | 0.00 | 0.00 | 47 | 1016.6 |
| 20260510172035 | 70 | 146 | 0.0 | 4.3 | 0.00 | 0.22 | 0.00 | 66 | 1010.9 |
| 20260510172016 | 70 | 298 | 1.7 | 3.5 | 0.00 | 0.00 | 0.00 | 48 | 1016.6 |
| 20260510171534 | 69 | 178 | 1.7 | 4.3 | 0.00 | 0.22 | 0.00 | 64 | 1010.9 |
| 20260510171527 | 69 | 150 | 0.9 | 3.5 | 0.00 | 0.00 | 0.00 | 49 | 1016.5 |
| 20260510171034 | 69 | 171 | 0.9 | 2.6 | 0.00 | 0.22 | 0.00 | 65 | 1010.9 |
| 20260510171010 | 69 | 293 | 0.9 | 2.6 | 0.00 | 0.00 | 0.00 | 48 | 1016.5 |
| 20260510170536 | 69 | 273 | 0.9 | 2.6 | 0.00 | 0.00 | 0.00 | 47 | 1016.6 |
| 20260510170533 | 68 | 181 | 0.9 | 2.6 | 0.00 | 0.22 | 0.00 | 66 | 1010.9 |
| 20260510170031 | 68 | 182 | 0.0 | 2.6 | 0.00 | 0.22 | 0.00 | 68 | 1010.9 |
| 20260510170007 | 69 | 292 | 0.0 | 2.6 | 0.00 | 0.00 | 0.00 | 47 | 1016.5 |
| 20260510165530 | 68 | 173 | 0.9 | 2.6 | 0.00 | 0.22 | 0.00 | 68 | 1011.0 |
| 20260510165505 | 69 | 288 | 0.0 | 2.6 | 0.00 | 0.00 | 0.00 | 51 | 1016.4 |
| 20260510165029 | 67 | 221 | 0.0 | 3.5 | 0.00 | 0.22 | 0.00 | 69 | 1011.0 |
| 20260510165005 | 68 | 291 | 0.9 | 1.7 | 0.00 | 0.00 | 0.00 | 54 | 1016.2 |
| 20260510164529 | 67 | 116 | 0.9 | 3.5 | 0.00 | 0.22 | 0.00 | 70 | 1011.0 |
| 20260510164511 | 68 | 182 | 0.9 | 2.6 | 0.00 | 0.00 | 0.00 | 57 | 1016.2 |
| 20260510164027 | 67 | 173 | 0.9 | 4.3 | 0.00 | 0.22 | 0.00 | 70 | 1011.2 |
| 20260510164007 | 68 | 295 | 1.7 | 2.6 | 0.00 | 0.00 | 0.00 | 50 | 1016.2 |
| 20260510163526 | 66 | 166 | 0.9 | 4.3 | 0.00 | 0.22 | 0.00 | 71 | 1011.3 |
| 20260510163507 | 68 | 266 | 0.0 | 1.7 | 0.00 | 0.00 | 0.00 | 52 | 1016.3 |
| 20260510163026 | 66 | 158 | 0.9 | 4.3 | 0.00 | 0.22 | 0.00 | 70 | 1011.3 |
| 20260510163016 | 67 | 224 | 0.0 | 0.9 | 0.00 | 0.00 | 0.00 | 48 | 1016.2 |
| 20260510162525 | 66 | 168 | 0.9 | 2.6 | 0.00 | 0.22 | 0.00 | 72 | 1011.4 |
| 20260510162514 | 67 | 245 | 0.0 | 1.7 | 0.00 | 0.00 | 0.00 | 53 | 1016.2 |
| 20260510162026 | 66 | 168 | 0.9 | 2.6 | 0.00 | 0.22 | 0.00 | 72 | 1011.4 |
| 20260510162009 | 67 | 245 | 0.9 | 1.7 | 0.00 | 0.00 | 0.00 | 57 | 1016.5 |
| 20260510161524 | 65 | 191 | 0.0 | 2.6 | 0.00 | 0.22 | 0.00 | 74 | 1011.4 |
| 20260510161519 | 66 | 290 | 0.9 | 2.6 | 0.00 | 0.00 | 0.00 | 53 | 1016.5 |
| 20260510161024 | 65 | 189 | 0.9 | 2.6 | 0.00 | 0.22 | 0.00 | 71 | 1011.4 |
| 20260510161008 | 66 | 289 | 0.9 | 2.6 | 0.00 | 0.00 | 0.00 | 61 | 1016.5 |
| 20260510160523 | 65 | 184 | 0.0 | 1.7 | 0.00 | 0.22 | 0.00 | 75 | 1011.4 |
| 20260510160513 | 66 | 300 | 0.0 | 0.9 | 0.00 | 0.00 | 0.00 | 56 | 1016.4 |
| 20260510160023 | 66 | 300 | 0.0 | 2.6 | 0.00 | 0.00 | 0.00 | 53 | 1016.4 |
| 20260510155529 | 64 | 168 | 0.0 | 2.6 | 0.00 | 0.22 | 0.00 | 73 | 1011.4 |
| 20260510155516 | 66 | 300 | 0.0 | 2.6 | 0.00 | 0.00 | 0.00 | 53 | 1016.2 |
| 20260510155020 | 64 | 194 | 0.0 | 1.7 | 0.00 | 0.22 | 0.00 | 75 | 1011.3 |
| 20260510155004 | 66 | 300 | 0.9 | 3.5 | 0.00 | 0.00 | 0.00 | 58 | 1016.3 |
| 20260510154518 | 64 | 193 | 0.0 | 1.7 | 0.00 | 0.22 | 0.00 | 76 | 1011.2 |
| 20260510154508 | 65 | 300 | 0.0 | 3.5 | 0.00 | 0.00 | 0.00 | 59 | 1016.2 |
| 20260510154017 | 63 | 193 | 0.0 | 2.6 | 0.00 | 0.22 | 0.00 | 76 | 1011.4 |
| 20260510154008 | 65 | 304 | 0.9 | 2.6 | 0.00 | 0.00 | 0.00 | 57 | 1016.1 |
| 20260510153521 | 63 | 13 | 0.0 | 2.6 | 0.00 | 0.22 | 0.00 | 78 | 1011.6 |
| 20260510153511 | 65 | 25 | 0.0 | 1.7 | 0.00 | 0.00 | 0.00 | 57 | 1016.1 |
| 20260510153018 | 65 | 300 | 0.0 | 3.5 | 0.00 | 0.00 | 0.00 | 61 | 1016.1 |
| 20260510153016 | 62 | 4 | 0.0 | 2.6 | 0.00 | 0.22 | 0.00 | 78 | 1011.5 |
| 20260510152517 | 61 | 97 | 0.9 | 2.6 | 0.00 | 0.22 | 0.00 | 78 | 1011.4 |
| 20260510152512 | 64 | 300 | 0.9 | 4.3 | 0.00 | 0.00 | 0.00 | 55 | 1016.1 |
| 20260510152015 | 61 | 98 | 0.9 | 2.6 | 0.00 | 0.22 | 0.00 | 79 | 1011.4 |
| 20260510152009 | 64 | 296 | 0.9 | 4.3 | 0.00 | 0.00 | 0.00 | 57 | 1016.1 |
| 20260510151519 | 64 | 299 | 0.9 | 1.7 | 0.00 | 0.00 | 0.00 | 62 | 1016.0 |
| 20260510151512 | 61 | 21 | 0.0 | 1.7 | 0.00 | 0.22 | 0.00 | 80 | 1011.4 |
| 20260510151011 | 60 | 360 | 0.0 | 1.7 | 0.00 | 0.22 | 0.00 | 82 | 1011.4 |
| 20260510150509 | 60 | 360 | 0.0 | 1.7 | 0.00 | 0.22 | 0.00 | 82 | 1011.5 |
| 20260510150024 | 64 | 295 | 1.7 | 3.5 | 0.00 | 0.00 | 0.00 | 57 | 1016.0 |
| 20260510150009 | 60 | 360 | 0.0 | 1.7 | 0.00 | 0.22 | 0.00 | 83 | 1011.5 |
| 20260510145508 | 59 | 360 | 0.0 | 0.9 | 0.00 | 0.22 | 0.00 | 83 | 1011.6 |
| 20260510145506 | 64 | 304 | 0.0 | 2.6 | 0.00 | 0.00 | 0.00 | 65 | 1015.8 |
| 20260510145010 | 63 | 297 | 0.0 | 2.6 | 0.00 | 0.00 | 0.00 | 65 | 1015.7 |
| 20260510144534 | 63 | 298 | 0.0 | 2.6 | 0.00 | 0.00 | 0.00 | 65 | 1015.5 |
| 20260510144506 | 59 | 360 | 0.0 | 1.7 | 0.00 | 0.22 | 0.00 | 84 | 1011.7 |
| 20260510144008 | 63 | 300 | 0.9 | 2.6 | 0.00 | 0.00 | 0.00 | 65 | 1015.5 |
| 20260510144006 | 58 | 254 | 0.0 | 1.7 | 0.00 | 0.22 | 0.00 | 84 | 1011.7 |
| 20260510143506 | 63 | 295 | 0.9 | 2.6 | 0.00 | 0.00 | 0.00 | 62 | 1015.5 |
| 20260510143503 | 58 | 360 | 0.0 | 1.7 | 0.00 | 0.22 | 0.00 | 84 | 1011.5 |
| 20260510143014 | 63 | 297 | 1.7 | 2.6 | 0.00 | 0.00 | 0.00 | 67 | 1015.4 |
| 20260510143002 | 57 | 360 | 0.0 | 1.7 | 0.00 | 0.22 | 0.00 | 85 | 1011.5 |
| 20260510142512 | 63 | 137 | 0.9 | 1.7 | 0.00 | 0.00 | 0.00 | 67 | 1015.4 |
| 20260510142502 | 57 | 360 | 0.0 | 1.7 | 0.00 | 0.22 | 0.00 | 85 | 1011.5 |
| 20260510142012 | 63 | 134 | 0.9 | 1.7 | 0.00 | 0.00 | 0.00 | 67 | 1015.3 |
| 20260510142002 | 57 | 360 | 0.0 | 1.7 | 0.00 | 0.22 | 0.00 | 85 | 1011.5 |
| 20260510141516 | 63 | 134 | 0.0 | 0.9 | 0.00 | 0.00 | 0.00 | 66 | 1015.3 |
| 20260510141502 | 56 | 360 | 0.0 | 1.7 | 0.00 | 0.22 | 0.00 | 85 | 1011.4 |
| 20260510141100 | 56 | 360 | 0.0 | 1.7 | 0.00 | 0.22 | 0.00 | 85 | 1011.6 |
| 20260510141010 | 62 | 134 | 0.0 | 0.9 | 0.00 | 0.00 | 0.00 | 70 | 1015.3 |
| 20260510140559 | 56 | 360 | 0.0 | 1.7 | 0.00 | 0.22 | 0.00 | 85 | 1011.5 |
| 20260510140508 | 62 | 134 | 0.0 | 1.7 | 0.00 | 0.00 | 0.00 | 70 | 1015.4 |
| 20260510140058 | 56 | 360 | 0.0 | 1.7 | 0.00 | 0.22 | 0.00 | 85 | 1011.3 |
| 20260510140020 | 62 | 290 | 0.0 | 1.7 | 0.00 | 0.00 | 0.00 | 68 | 1015.3 |
| 20260510135558 | 55 | 360 | 0.0 | 1.7 | 0.00 | 0.22 | 0.00 | 85 | 1011.4 |
| 20260510135508 | 61 | 122 | 0.0 | 2.6 | 0.00 | 0.00 | 0.00 | 70 | 1015.2 |
| 20260510135058 | 55 | 360 | 0.0 | 1.7 | 0.00 | 0.22 | 0.00 | 85 | 1011.4 |
| 20260510135004 | 61 | 302 | 0.0 | 2.6 | 0.00 | 0.00 | 0.00 | 70 | 1015.0 |
| 20260510134606 | 55 | 360 | 0.0 | 1.7 | 0.00 | 0.22 | 0.00 | 85 | 1011.4 |
| 20260510134505 | 61 | 301 | 1.7 | 2.6 | 0.00 | 0.00 | 0.00 | 71 | 1015.0 |
| 20260510134057 | 55 | 360 | 0.0 | 1.7 | 0.00 | 0.22 | 0.00 | 85 | 1011.4 |
| 20260510134003 | 61 | 300 | 0.0 | 1.7 | 0.00 | 0.00 | 0.00 | 73 | 1014.7 |
| 20260510133557 | 55 | 360 | 0.0 | 0.0 | 0.00 | 0.22 | 0.00 | 85 | 1011.3 |
| 20260510133503 | 60 | 300 | 0.9 | 1.7 | 0.00 | 0.00 | 0.00 | 75 | 1014.7 |
| 20260510133055 | 55 | 360 | 0.0 | 0.9 | 0.00 | 0.22 | 0.00 | 85 | 1011.3 |
| 20260510133007 | 60 | 293 | 0.0 | 0.9 | 0.00 | 0.00 | 0.00 | 76 | 1014.5 |
| 20260510132559 | 54 | 244 | 0.0 | 0.0 | 0.00 | 0.22 | 0.00 | 85 | 1011.4 |
| 20260510132506 | 59 | 293 | 0.0 | 0.9 | 0.00 | 0.00 | 0.00 | 78 | 1014.5 |
| 20260510132007 | 59 | 293 | 0.0 | 1.7 | 0.00 | 0.00 | 0.00 | 78 | 1014.5 |
| 20260510131555 | 54 | 244 | 0.0 | 0.9 | 0.00 | 0.22 | 0.00 | 85 | 1011.4 |
| 20260510131518 | 58 | 293 | 0.0 | 1.7 | 0.00 | 0.00 | 0.00 | 78 | 1014.4 |
| 20260510131054 | 54 | 245 | 0.0 | 0.9 | 0.00 | 0.22 | 0.00 | 86 | 1011.4 |
| 20260510131007 | 58 | 289 | 0.0 | 1.7 | 0.00 | 0.00 | 0.00 | 79 | 1014.3 |
| 20260510130553 | 54 | 360 | 0.0 | 0.0 | 0.00 | 0.22 | 0.00 | 85 | 1011.2 |
| 20260510130507 | 58 | 286 | 0.9 | 1.7 | 0.00 | 0.00 | 0.00 | 80 | 1014.3 |
| 20260510130054 | 53 | 245 | 0.0 | 0.9 | 0.00 | 0.22 | 0.00 | 85 | 1011.2 |
| 20260510130018 | 57 | 286 | 0.0 | 1.7 | 0.00 | 0.00 | 0.00 | 82 | 1014.3 |
| 20260510125555 | 53 | 245 | 0.0 | 1.7 | 0.00 | 0.22 | 0.00 | 85 | 1010.9 |
| 20260510125508 | 57 | 287 | 0.0 | 1.7 | 0.00 | 0.00 | 0.00 | 82 | 1014.2 |
| 20260510125049 | 53 | 208 | 0.0 | 1.7 | 0.00 | 0.22 | 0.00 | 85 | 1011.0 |
| 20260510125009 | 56 | 144 | 0.0 | 0.9 | 0.00 | 0.00 | 0.00 | 82 | 1014.0 |
| 20260510124551 | 53 | 206 | 0.0 | 0.9 | 0.00 | 0.22 | 0.00 | 85 | 1010.9 |
| 20260510124526 | 56 | 143 | 0.0 | 0.9 | 0.00 | 0.00 | 0.00 | 85 | 1014.0 |
| 20260510124048 | 53 | 206 | 0.0 | 1.7 | 0.00 | 0.22 | 0.00 | 85 | 1010.9 |
| 20260510124007 | 56 | 144 | 0.0 | 0.9 | 0.00 | 0.00 | 0.00 | 86 | 1014.0 |
| 20260510123551 | 53 | 206 | 0.0 | 1.7 | 0.00 | 0.22 | 0.00 | 85 | 1010.9 |
| 20260510123504 | 56 | 144 | 0.0 | 0.9 | 0.00 | 0.00 | 0.00 | 87 | 1014.0 |
| 20260510123048 | 52 | 207 | 0.0 | 0.0 | 0.00 | 0.22 | 0.00 | 85 | 1010.9 |
| 20260510123008 | 56 | 144 | 0.0 | 0.9 | 0.00 | 0.00 | 0.00 | 87 | 1013.9 |
| 20260510122546 | 52 | 207 | 0.0 | 1.7 | 0.00 | 0.22 | 0.00 | 85 | 1010.8 |
| 20260510122505 | 56 | 144 | 0.0 | 0.9 | 0.00 | 0.00 | 0.00 | 87 | 1013.7 |
| 20260510122004 | 56 | 144 | 0.0 | 0.9 | 0.00 | 0.00 | 0.00 | 88 | 1013.5 |
| 20260510121546 | 52 | 207 | 0.0 | 1.7 | 0.00 | 0.22 | 0.00 | 85 | 1011.0 |
| 20260510121512 | 55 | 143 | 0.0 | 0.9 | 0.00 | 0.00 | 0.00 | 89 | 1013.4 |
| 20260510121049 | 52 | 207 | 0.0 | 0.9 | 0.00 | 0.22 | 0.00 | 85 | 1010.8 |
| 20260510121007 | 55 | 144 | 0.0 | 0.0 | 0.00 | 0.00 | 0.00 | 89 | 1013.2 |
| 20260510120542 | 52 | 207 | 0.0 | 0.0 | 0.00 | 0.22 | 0.00 | 85 | 1010.6 |
| 20260510120509 | 55 | 144 | 0.0 | 0.0 | 0.00 | 0.00 | 0.00 | 89 | 1013.2 |
| 20260510120042 | 52 | 207 | 0.0 | 0.0 | 0.00 | 0.22 | 0.00 | 85 | 1010.5 |
| 20260510120022 | 55 | 144 | 0.0 | 0.0 | 0.00 | 0.00 | 0.00 | 89 | 1013.1 |
| 20260510115540 | 52 | 207 | 0.0 | 0.0 | 0.00 | 0.22 | 0.00 | 85 | 1010.5 |
| 20260510115511 | 55 | 143 | 0.0 | 0.9 | 0.00 | 0.00 | 0.00 | 89 | 1012.9 |
| 20260510115039 | 52 | 207 | 0.0 | 0.0 | 0.00 | 0.22 | 0.00 | 85 | 1010.5 |
| 20260510115007 | 55 | 144 | 0.0 | 0.9 | 0.00 | 0.00 | 0.00 | 88 | 1012.8 |
| 20260510114539 | 52 | 207 | 0.0 | 0.0 | 0.00 | 0.22 | 0.00 | 85 | 1010.5 |
| 20260510114521 | 55 | 144 | 0.0 | 0.0 | 0.00 | 0.00 | 0.00 | 88 | 1012.7 |
| 20260510114038 | 52 | 207 | 0.0 | 0.0 | 0.00 | 0.22 | 0.00 | 85 | 1010.6 |
| 20260510114010 | 55 | 144 | 0.0 | 0.0 | 0.00 | 0.00 | 0.00 | 87 | 1012.8 |
| 20260510113539 | 52 | 207 | 0.0 | 0.0 | 0.00 | 0.22 | 0.00 | 85 | 1010.5 |
| 20260510113508 | 55 | 144 | 0.0 | 0.9 | 0.00 | 0.00 | 0.00 | 87 | 1012.9 |
| 20260510113041 | 52 | 207 | 0.0 | 0.0 | 0.00 | 0.22 | 0.00 | 85 | 1010.4 |
| 20260510113026 | 56 | 144 | 0.0 | 0.9 | 0.00 | 0.00 | 0.00 | 87 | 1012.7 |
| 20260510112538 | 51 | 207 | 0.0 | 0.9 | 0.00 | 0.22 | 0.00 | 85 | 1010.5 |
| 20260510112513 | 56 | 144 | 0.0 | 0.9 | 0.00 | 0.00 | 0.00 | 86 | 1012.6 |
| 20260510112004 | 57 | 144 | 0.0 | 0.9 | 0.00 | 0.00 | 0.00 | 87 | 1012.7 |
| 20260510111551 | 51 | 360 | 0.0 | 0.0 | 0.00 | 0.22 | 0.00 | 85 | 1010.5 |
| 20260510111508 | 57 | 144 | 0.0 | 0.9 | 0.00 | 0.00 | 0.00 | 86 | 1012.6 |
| 20260510111038 | 51 | 207 | 0.0 | 0.0 | 0.00 | 0.22 | 0.00 | 85 | 1010.4 |
| 20260510111003 | 57 | 143 | 0.0 | 0.9 | 0.00 | 0.00 | 0.00 | 85 | 1012.7 |
| 20260510110539 | 51 | 207 | 0.0 | 0.0 | 0.00 | 0.22 | 0.00 | 85 | 1010.2 |
| 20260510110508 | 57 | 143 | 0.0 | 0.9 | 0.00 | 0.00 | 0.00 | 84 | 1012.7 |
| 20260510110039 | 51 | 207 | 0.0 | 0.0 | 0.00 | 0.22 | 0.00 | 85 | 1010.1 |
| 20260510110013 | 57 | 144 | 0.0 | 0.9 | 0.00 | 0.00 | 0.00 | 84 | 1012.9 |
| 20260510110003 | 57 | 143 | 0.0 | 0.9 | 0.00 | 0.00 | 0.00 | 84 | 1012.9 |
| 20260510105539 | 51 | 207 | 0.0 | 0.9 | 0.00 | 0.22 | 0.00 | 85 | 1010.1 |
| 20260510105503 | 57 | 143 | 0.0 | 0.9 | 0.00 | 0.00 | 0.00 | 84 | 1012.9 |
| 20260510105040 | 51 | 207 | 0.0 | 0.9 | 0.00 | 0.22 | 0.00 | 85 | 1010.1 |
| 20260510105004 | 57 | 144 | 0.0 | 0.9 | 0.00 | 0.00 | 0.00 | 83 | 1012.5 |
| 20260510104547 | 51 | 207 | 0.0 | 0.0 | 0.00 | 0.22 | 0.00 | 85 | 1010.0 |
| 20260510104504 | 57 | 144 | 0.0 | 1.7 | 0.00 | 0.00 | 0.00 | 83 | 1012.8 |
| 20260510104042 | 51 | 207 | 0.0 | 0.0 | 0.00 | 0.22 | 0.00 | 85 | 1009.9 |
| 20260510104003 | 56 | 144 | 0.0 | 1.7 | 0.00 | 0.01 | 0.00 | 86 | 1012.7 |
| 20260510103537 | 51 | 207 | 0.0 | 0.0 | 0.00 | 0.22 | 0.00 | 85 | 1010.0 |
| 20260510103504 | 56 | 142 | 0.0 | 0.0 | 0.00 | 0.01 | 0.00 | 87 | 1012.5 |
| 20260510103041 | 51 | 207 | 0.0 | 0.0 | 0.00 | 0.22 | 0.00 | 85 | 1010.0 |
| 20260510103004 | 56 | 143 | 0.0 | 0.0 | 0.00 | 0.01 | 0.00 | 86 | 1012.3 |
| 20260510102539 | 51 | 207 | 0.0 | 0.9 | 0.00 | 0.22 | 0.00 | 85 | 1009.9 |
| 20260510102504 | 56 | 143 | 0.0 | 0.0 | 0.00 | 0.01 | 0.00 | 85 | 1012.2 |
| 20260510102004 | 56 | 142 | 0.0 | 0.0 | 0.00 | 0.01 | 0.00 | 86 | 1012.1 |
| 20260510101536 | 51 | 207 | 0.0 | 1.7 | 0.00 | 0.22 | 0.00 | 85 | 1010.0 |
| 20260510101508 | 56 | 143 | 0.0 | 0.0 | 0.00 | 0.02 | 0.00 | 85 | 1012.0 |
| 20260510101038 | 51 | 207 | 0.0 | 1.7 | 0.00 | 0.22 | 0.00 | 85 | 1010.0 |
| 20260510101003 | 56 | 142 | 0.0 | 0.0 | 0.00 | 0.03 | 0.00 | 85 | 1011.9 |
| 20260510100536 | 51 | 207 | 0.0 | 0.0 | 0.00 | 0.22 | 0.00 | 85 | 1009.9 |
| 20260510100503 | 56 | 143 | 0.0 | 0.0 | 0.00 | 0.04 | 0.00 | 84 | 1011.7 |
| 20260510100036 | 51 | 207 | 0.0 | 0.9 | 0.00 | 0.22 | 0.00 | 85 | 1010.0 |
| 20260510100011 | 56 | 142 | 0.0 | 0.0 | 0.00 | 0.05 | 0.00 | 84 | 1011.7 |
| 20260510095536 | 51 | 207 | 0.0 | 0.9 | 0.00 | 0.22 | 0.00 | 85 | 1010.1 |
| 20260510095507 | 57 | 142 | 0.0 | 0.0 | 0.00 | 0.05 | 0.00 | 84 | 1011.6 |
| 20260510095035 | 51 | 360 | 0.0 | 1.7 | 0.00 | 0.22 | 0.00 | 85 | 1010.1 |
| 20260510095001 | 57 | 142 | 0.0 | 0.0 | 0.00 | 0.06 | 0.00 | 83 | 1011.6 |
| 20260510094536 | 51 | 207 | 0.9 | 1.7 | 0.00 | 0.22 | 0.00 | 85 | 1010.1 |
| 20260510094513 | 57 | 142 | 0.0 | 0.0 | 0.00 | 0.06 | 0.00 | 83 | 1011.5 |
| 20260510094036 | 51 | 150 | 0.0 | 0.0 | 0.00 | 0.22 | 0.00 | 85 | 1010.1 |
| 20260510094003 | 57 | 142 | 0.0 | 0.0 | 0.00 | 0.06 | 0.00 | 83 | 1011.5 |
| 20260510093536 | 51 | 150 | 0.0 | 0.0 | 0.00 | 0.22 | 0.00 | 85 | 1010.1 |
| 20260510093503 | 57 | 143 | 0.0 | 0.9 | 0.00 | 0.06 | 0.00 | 82 | 1011.4 |
| 20260510093041 | 51 | 150 | 0.0 | 0.0 | 0.00 | 0.22 | 0.00 | 85 | 1010.0 |
| 20260510093004 | 57 | 143 | 0.0 | 0.9 | 0.00 | 0.06 | 0.00 | 80 | 1011.2 |
| 20260510092537 | 51 | 150 | 0.0 | 0.0 | 0.00 | 0.22 | 0.00 | 85 | 1010.1 |
| 20260510092504 | 56 | 146 | 0.0 | 0.0 | 0.00 | 0.06 | 0.00 | 81 | 1011.3 |
| 20260510092005 | 56 | 146 | 0.0 | 0.0 | 0.00 | 0.06 | 0.00 | 83 | 1011.4 |
| 20260510091536 | 51 | 150 | 0.0 | 0.0 | 0.00 | 0.22 | 0.00 | 85 | 1010.2 |
| 20260510091506 | 56 | 146 | 0.0 | 0.0 | 0.00 | 0.07 | 0.00 | 83 | 1011.3 |
| 20260510091035 | 51 | 150 | 0.0 | 0.0 | 0.00 | 0.22 | 0.00 | 85 | 1010.3 |
| 20260510091004 | 56 | 146 | 0.0 | 0.9 | 0.00 | 0.07 | 0.00 | 82 | 1011.4 |
| 20260510090535 | 51 | 150 | 0.0 | 1.7 | 0.00 | 0.22 | 0.00 | 85 | 1010.3 |
| 20260510090503 | 56 | 146 | 0.0 | 0.9 | 0.00 | 0.07 | 0.00 | 83 | 1011.4 |
| 20260510090036 | 51 | 150 | 0.0 | 1.7 | 0.00 | 0.22 | 0.00 | 85 | 1010.5 |
| 20260510090009 | 56 | 148 | 0.0 | 0.0 | 0.00 | 0.07 | 0.00 | 83 | 1011.4 |
| 20260510085534 | 51 | 162 | 0.0 | 0.9 | 0.00 | 0.22 | 0.00 | 85 | 1010.4 |
| 20260510085502 | 56 | 148 | 0.0 | 0.0 | 0.00 | 0.08 | 0.00 | 83 | 1011.4 |
| 20260510085034 | 51 | 162 | 0.0 | 0.9 | 0.00 | 0.22 | 0.00 | 85 | 1010.6 |
| 20260510085006 | 57 | 148 | 0.0 | 0.0 | 0.00 | 0.08 | 0.00 | 82 | 1011.3 |
| 20260510084537 | 51 | 162 | 0.0 | 0.9 | 0.00 | 0.22 | 0.00 | 85 | 1010.6 |
| 20260510084512 | 57 | 148 | 0.0 | 0.9 | 0.00 | 0.08 | 0.00 | 82 | 1011.2 |
| 20260510084034 | 51 | 162 | 0.0 | 0.9 | 0.00 | 0.22 | 0.00 | 85 | 1010.5 |
| 20260510084005 | 57 | 148 | 0.0 | 0.9 | 0.00 | 0.08 | 0.00 | 81 | 1011.1 |
| 20260510083536 | 51 | 162 | 0.0 | 1.7 | 0.00 | 0.22 | 0.00 | 85 | 1010.5 |
| 20260510083504 | 57 | 224 | 0.0 | 1.7 | 0.00 | 0.09 | 0.00 | 81 | 1011.0 |
| 20260510083038 | 51 | 165 | 0.0 | 1.7 | 0.00 | 0.22 | 0.00 | 85 | 1010.5 |
| 20260510083003 | 57 | 224 | 0.0 | 1.7 | 0.00 | 0.09 | 0.00 | 79 | 1011.1 |
| 20260510082532 | 52 | 127 | 0.0 | 4.3 | 0.00 | 0.22 | 0.00 | 85 | 1010.4 |
| 20260510082501 | 57 | 205 | 0.0 | 0.9 | 0.00 | 0.10 | 0.00 | 80 | 1010.9 |
| 20260510082003 | 58 | 140 | 0.0 | 0.0 | 0.00 | 0.10 | 0.00 | 79 | 1010.8 |
| 20260510081541 | 52 | 79 | 0.0 | 1.7 | 0.00 | 0.22 | 0.00 | 85 | 1010.4 |
| 20260510081503 | 58 | 140 | 0.0 | 0.9 | 0.00 | 0.11 | 0.00 | 78 | 1010.6 |
| 20260510081034 | 51 | 12 | 0.0 | 1.7 | 0.00 | 0.22 | 0.00 | 85 | 1010.3 |
| 20260510081003 | 57 | 140 | 0.0 | 0.9 | 0.00 | 0.11 | 0.00 | 78 | 1010.4 |
| 20260510080531 | 51 | 13 | 0.0 | 1.7 | 0.00 | 0.22 | 0.00 | 85 | 1010.3 |
| 20260510080502 | 57 | 131 | 0.0 | 0.9 | 0.00 | 0.12 | 0.00 | 78 | 1010.3 |
| 20260510080031 | 51 | 12 | 0.0 | 0.9 | 0.00 | 0.22 | 0.00 | 85 | 1009.9 |
| 20260510080005 | 56 | 131 | 0.0 | 0.9 | 0.00 | 0.12 | 0.00 | 79 | 1010.2 |
| 20260510075530 | 51 | 11 | 0.0 | 0.9 | 0.00 | 0.22 | 0.00 | 85 | 1009.8 |
| 20260510075504 | 56 | 136 | 0.0 | 0.0 | 0.00 | 0.13 | 0.00 | 80 | 1010.0 |
| 20260510075032 | 51 | 11 | 0.0 | 0.9 | 0.00 | 0.22 | 0.00 | 85 | 1009.7 |
| 20260510075003 | 56 | 136 | 0.0 | 0.0 | 0.00 | 0.13 | 0.00 | 79 | 1010.0 |
| 20260510074530 | 51 | 11 | 0.0 | 0.0 | 0.00 | 0.22 | 0.00 | 85 | 1009.7 |
| 20260510074509 | 56 | 136 | 0.0 | 0.0 | 0.00 | 0.13 | 0.00 | 80 | 1010.1 |
| 20260510074034 | 51 | 11 | 0.0 | 0.9 | 0.00 | 0.22 | 0.00 | 85 | 1009.7 |
| 20260510074006 | 57 | 136 | 0.0 | 0.0 | 0.00 | 0.13 | 0.00 | 79 | 1010.0 |
| 20260510073530 | 52 | 13 | 0.0 | 0.9 | 0.00 | 0.22 | 0.00 | 85 | 1009.6 |
| 20260510073507 | 57 | 136 | 0.0 | 0.0 | 0.00 | 0.14 | 0.00 | 79 | 1010.0 |
| 20260510073035 | 52 | 11 | 0.0 | 0.9 | 0.00 | 0.22 | 0.00 | 85 | 1009.6 |
| 20260510073015 | 57 | 136 | 0.0 | 0.9 | 0.00 | 0.14 | 0.00 | 78 | 1010.0 |
| 20260510072536 | 52 | 11 | 0.0 | 0.0 | 0.00 | 0.22 | 0.00 | 85 | 1009.5 |
| 20260510072506 | 58 | 136 | 0.0 | 0.9 | 0.00 | 0.14 | 0.00 | 77 | 1010.1 |
| 20260510072001 | 58 | 136 | 0.0 | 0.9 | 0.00 | 0.14 | 0.00 | 76 | 1010.1 |
| 20260510071530 | 52 | 11 | 0.0 | 0.0 | 0.00 | 0.22 | 0.00 | 85 | 1009.6 |
| 20260510071503 | 58 | 136 | 0.0 | 0.9 | 0.00 | 0.14 | 0.00 | 77 | 1010.0 |
| 20260510071029 | 52 | 11 | 0.0 | 0.0 | 0.00 | 0.22 | 0.00 | 85 | 1009.5 |
| 20260510071003 | 59 | 136 | 0.0 | 0.9 | 0.00 | 0.14 | 0.00 | 76 | 1010.0 |
| 20260510070529 | 52 | 5 | 0.0 | 0.0 | 0.00 | 0.22 | 0.00 | 85 | 1009.7 |
| 20260510070503 | 59 | 136 | 0.0 | 0.9 | 0.00 | 0.14 | 0.00 | 74 | 1010.0 |
| 20260510070006 | 59 | 136 | 0.0 | 0.9 | 0.00 | 0.14 | 0.00 | 73 | 1010.0 |
| 20260510065528 | 52 | 8 | 0.0 | 0.0 | 0.00 | 0.22 | 0.00 | 85 | 1009.7 |
| 20260510065503 | 59 | 136 | 0.0 | 0.9 | 0.00 | 0.14 | 0.00 | 73 | 1010.1 |
| 20260510065031 | 52 | 7 | 0.0 | 0.0 | 0.00 | 0.22 | 0.00 | 85 | 1009.7 |
| 20260510065004 | 60 | 136 | 0.0 | 0.9 | 0.00 | 0.14 | 0.00 | 72 | 1010.2 |
| 20260510064539 | 52 | 7 | 0.0 | 0.0 | 0.00 | 0.22 | 0.00 | 85 | 1009.8 |
| 20260510064507 | 60 | 136 | 0.0 | 0.9 | 0.00 | 0.15 | 0.00 | 73 | 1010.3 |
| 20260510064030 | 52 | 4 | 0.0 | 0.0 | 0.00 | 0.22 | 0.00 | 85 | 1009.8 |
| 20260510064005 | 61 | 136 | 0.0 | 0.9 | 0.00 | 0.15 | 0.00 | 71 | 1010.3 |
| 20260510063527 | 52 | 5 | 0.0 | 0.0 | 0.00 | 0.22 | 0.00 | 85 | 1009.9 |
| 20260510063503 | 61 | 136 | 0.0 | 1.7 | 0.00 | 0.15 | 0.00 | 69 | 1010.3 |
| 20260510063038 | 52 | 8 | 0.0 | 0.0 | 0.00 | 0.22 | 0.00 | 85 | 1009.7 |
| 20260510063010 | 61 | 137 | 0.0 | 1.7 | 0.00 | 0.15 | 0.00 | 69 | 1010.2 |
| 20260510062527 | 52 | 6 | 0.0 | 0.0 | 0.00 | 0.22 | 0.00 | 85 | 1009.7 |
| 20260510062507 | 61 | 107 | 0.0 | 1.7 | 0.00 | 0.15 | 0.00 | 69 | 1010.2 |
| 20260510062007 | 61 | 129 | 0.0 | 1.7 | 0.00 | 0.15 | 0.00 | 69 | 1010.4 |
| 20260510061533 | 52 | 5 | 0.0 | 0.0 | 0.00 | 0.22 | 0.00 | 85 | 1009.5 |
| 20260510061525 | 61 | 133 | 0.0 | 1.7 | 0.00 | 0.15 | 0.00 | 70 | 1010.4 |
| 20260510061027 | 52 | 5 | 0.0 | 0.0 | 0.00 | 0.22 | 0.00 | 85 | 1009.3 |
| 20260510061007 | 61 | 136 | 0.0 | 0.9 | 0.00 | 0.15 | 0.00 | 69 | 1010.4 |
| 20260510060528 | 52 | 4 | 0.0 | 0.0 | 0.00 | 0.22 | 0.00 | 85 | 1009.3 |
| 20260510060503 | 60 | 128 | 0.0 | 0.9 | 0.00 | 0.15 | 0.00 | 71 | 1010.5 |
| 20260510060040 | 52 | 4 | 0.0 | 0.0 | 0.00 | 0.22 | 0.00 | 85 | 1009.3 |
| 20260510060004 | 60 | 130 | 0.0 | 0.9 | 0.00 | 0.15 | 0.00 | 71 | 1010.6 |
| 20260510055525 | 52 | 4 | 0.0 | 0.0 | 0.00 | 0.22 | 0.00 | 85 | 1009.4 |
| 20260510055503 | 60 | 137 | 0.0 | 0.9 | 0.00 | 0.15 | 0.00 | 72 | 1010.6 |
| 20260510055026 | 52 | 6 | 0.0 | 0.0 | 0.00 | 0.22 | 0.00 | 85 | 1009.4 |
| 20260510055003 | 60 | 133 | 0.0 | 0.9 | 0.00 | 0.15 | 0.00 | 72 | 1010.6 |
| 20260510054526 | 52 | 5 | 0.0 | 0.0 | 0.00 | 0.22 | 0.00 | 85 | 1009.4 |
| 20260510054504 | 60 | 133 | 0.0 | 0.9 | 0.00 | 0.15 | 0.00 | 71 | 1010.6 |
| 20260510054025 | 52 | 4 | 0.0 | 0.0 | 0.00 | 0.22 | 0.00 | 85 | 1009.4 |
| 20260510054004 | 61 | 133 | 0.0 | 0.9 | 0.00 | 0.15 | 0.00 | 70 | 1010.6 |
| 20260510053525 | 51 | 5 | 0.0 | 0.0 | 0.00 | 0.22 | 0.00 | 85 | 1009.4 |
| 20260510053503 | 61 | 133 | 0.0 | 0.9 | 0.00 | 0.15 | 0.00 | 70 | 1010.6 |
| 20260510053037 | 51 | 6 | 0.0 | 0.0 | 0.00 | 0.22 | 0.00 | 85 | 1009.6 |
| 20260510053007 | 61 | 133 | 0.0 | 0.9 | 0.00 | 0.15 | 0.00 | 70 | 1010.4 |
| 20260510052524 | 51 | 6 | 0.0 | 0.0 | 0.00 | 0.22 | 0.00 | 85 | 1009.5 |
| 20260510052507 | 61 | 133 | 0.0 | 0.9 | 0.00 | 0.15 | 0.00 | 69 | 1010.4 |
| 20260510052006 | 61 | 136 | 0.0 | 0.9 | 0.00 | 0.15 | 0.00 | 68 | 1010.5 |
| 20260510051525 | 51 | 7 | 0.0 | 0.0 | 0.00 | 0.22 | 0.00 | 85 | 1009.5 |
| 20260510051513 | 62 | 135 | 0.0 | 0.9 | 0.00 | 0.15 | 0.00 | 68 | 1010.4 |
| 20260510051026 | 51 | 6 | 0.0 | 0.0 | 0.00 | 0.22 | 0.00 | 85 | 1009.6 |
| 20260510051011 | 62 | 135 | 0.0 | 0.9 | 0.00 | 0.15 | 0.00 | 68 | 1010.4 |
| 20260510050522 | 51 | 8 | 0.0 | 0.0 | 0.00 | 0.22 | 0.00 | 85 | 1009.6 |
| 20260510050507 | 62 | 135 | 0.0 | 1.7 | 0.00 | 0.15 | 0.00 | 68 | 1010.5 |
| 20260510050021 | 51 | 7 | 0.0 | 0.0 | 0.00 | 0.22 | 0.00 | 85 | 1009.7 |
| 20260510050018 | 62 | 129 | 0.0 | 1.7 | 0.00 | 0.15 | 0.00 | 68 | 1010.5 |
| 20260510045523 | 51 | 5 | 0.0 | 0.0 | 0.00 | 0.22 | 0.00 | 84 | 1009.6 |
| 20260510045507 | 62 | 123 | 0.0 | 0.9 | 0.00 | 0.15 | 0.00 | 66 | 1010.5 |
| 20260510045020 | 51 | 6 | 0.0 | 0.0 | 0.00 | 0.22 | 0.00 | 84 | 1009.7 |
| 20260510045003 | 62 | 128 | 0.0 | 0.9 | 0.00 | 0.15 | 0.00 | 67 | 1010.5 |
| 20260510044539 | 51 | 7 | 0.0 | 0.0 | 0.00 | 0.22 | 0.00 | 84 | 1009.6 |
| 20260510044504 | 63 | 128 | 0.0 | 0.9 | 0.00 | 0.15 | 0.00 | 66 | 1010.5 |
| 20260510044017 | 51 | 8 | 0.0 | 0.0 | 0.00 | 0.22 | 0.00 | 84 | 1009.7 |
| 20260510044003 | 63 | 110 | 0.0 | 0.9 | 0.00 | 0.15 | 0.00 | 65 | 1010.5 |
| 20260510043517 | 51 | 10 | 0.0 | 0.0 | 0.00 | 0.22 | 0.00 | 84 | 1009.8 |
| 20260510043504 | 63 | 155 | 0.0 | 0.9 | 0.00 | 0.15 | 0.00 | 67 | 1010.5 |
| 20260510043017 | 51 | 360 | 0.0 | 0.0 | 0.00 | 0.22 | 0.00 | 84 | 1009.8 |
| 20260510043007 | 63 | 120 | 0.0 | 1.7 | 0.00 | 0.15 | 0.00 | 66 | 1010.4 |
| 20260510042517 | 50 | 10 | 0.0 | 0.0 | 0.00 | 0.22 | 0.00 | 84 | 1009.8 |
| 20260510042503 | 62 | 89 | 0.0 | 1.7 | 0.00 | 0.15 | 0.00 | 66 | 1010.4 |
| 20260510042004 | 62 | 82 | 0.0 | 0.9 | 0.00 | 0.15 | 0.00 | 67 | 1010.4 |
| 20260510041517 | 50 | 360 | 0.0 | 0.0 | 0.00 | 0.22 | 0.00 | 84 | 1009.8 |
| 20260510041515 | 62 | 131 | 0.0 | 0.9 | 0.00 | 0.15 | 0.00 | 69 | 1010.4 |
| 20260510041016 | 50 | 12 | 0.0 | 0.0 | 0.00 | 0.22 | 0.00 | 84 | 1009.8 |
| 20260510041007 | 61 | 131 | 0.0 | 0.9 | 0.00 | 0.15 | 0.00 | 69 | 1010.4 |
| 20260510040523 | 50 | 360 | 0.0 | 0.0 | 0.00 | 0.22 | 0.00 | 84 | 1009.7 |
| 20260510040507 | 62 | 276 | 0.0 | 0.9 | 0.00 | 0.15 | 0.00 | 69 | 1010.4 |
| 20260510040030 | 50 | 9 | 0.0 | 0.0 | 0.00 | 0.22 | 0.00 | 84 | 1009.7 |
| 20260510040013 | 62 | 276 | 0.0 | 0.9 | 0.00 | 0.15 | 0.00 | 70 | 1010.4 |
| 20260510035515 | 50 | 12 | 0.0 | 0.0 | 0.00 | 0.22 | 0.22 | 84 | 1009.7 |
| 20260510035507 | 62 | 135 | 0.0 | 0.9 | 0.00 | 0.15 | 0.15 | 69 | 1010.4 |
| 20260510035018 | 50 | 7 | 0.0 | 0.0 | 0.00 | 0.22 | 0.22 | 84 | 1009.7 |
| 20260510035008 | 63 | 134 | 0.0 | 0.9 | 0.00 | 0.15 | 0.15 | 67 | 1010.4 |
| 20260510034519 | 63 | 134 | 0.0 | 0.9 | 0.00 | 0.15 | 0.15 | 65 | 1010.4 |
| 20260510034516 | 50 | 12 | 0.0 | 0.0 | 0.00 | 0.22 | 0.22 | 84 | 1009.6 |
| 20260510034015 | 51 | 13 | 0.0 | 0.0 | 0.00 | 0.22 | 0.22 | 84 | 1009.5 |
| 20260510034008 | 62 | 131 | 0.0 | 0.9 | 0.00 | 0.15 | 0.15 | 65 | 1010.4 |
| 20260510033514 | 51 | 360 | 0.0 | 0.0 | 0.00 | 0.22 | 0.22 | 83 | 1009.3 |
| 20260510033503 | 62 | 113 | 0.0 | 0.9 | 0.00 | 0.15 | 0.15 | 67 | 1010.4 |
| 20260510033015 | 51 | 10 | 0.0 | 0.0 | 0.00 | 0.22 | 0.22 | 83 | 1009.3 |
| 20260510033005 | 61 | 98 | 0.0 | 0.9 | 0.00 | 0.15 | 0.15 | 69 | 1010.4 |
| 20260510032514 | 51 | 8 | 0.0 | 0.0 | 0.00 | 0.22 | 0.22 | 84 | 1009.3 |
| 20260510032506 | 60 | 190 | 0.0 | 0.0 | 0.00 | 0.15 | 0.15 | 72 | 1010.3 |
| 20260510032004 | 60 | 190 | 0.0 | 0.0 | 0.00 | 0.15 | 0.15 | 73 | 1010.3 |
| 20260510031515 | 51 | 8 | 0.0 | 0.0 | 0.00 | 0.22 | 0.22 | 84 | 1009.4 |
| 20260510031506 | 60 | 192 | 0.0 | 0.0 | 0.00 | 0.15 | 0.15 | 74 | 1010.3 |
| 20260510031015 | 51 | 6 | 0.0 | 0.0 | 0.00 | 0.22 | 0.22 | 84 | 1009.3 |
| 20260510031005 | 59 | 192 | 0.0 | 0.0 | 0.00 | 0.15 | 0.15 | 76 | 1010.2 |
| 20260510030519 | 51 | 6 | 0.0 | 0.0 | 0.00 | 0.22 | 0.22 | 84 | 1009.3 |
| 20260510030504 | 59 | 191 | 0.0 | 0.0 | 0.00 | 0.15 | 0.15 | 76 | 1010.2 |
| 20260510030016 | 51 | 7 | 0.0 | 0.0 | 0.00 | 0.22 | 0.22 | 84 | 1009.3 |
| 20260510030009 | 59 | 191 | 0.0 | 0.0 | 0.00 | 0.15 | 0.15 | 79 | 1010.1 |
| 20260510025514 | 51 | 5 | 0.0 | 0.0 | 0.00 | 0.22 | 0.22 | 84 | 1009.3 |
| 20260510025504 | 59 | 191 | 0.0 | 0.0 | 0.00 | 0.15 | 0.15 | 77 | 1010.1 |
| 20260510025016 | 51 | 5 | 0.0 | 0.0 | 0.00 | 0.22 | 0.22 | 83 | 1009.4 |
| 20260510025009 | 59 | 191 | 0.0 | 0.0 | 0.00 | 0.15 | 0.15 | 77 | 1010.0 |
| 20260510024517 | 59 | 191 | 0.0 | 0.0 | 0.00 | 0.15 | 0.15 | 77 | 1010.1 |
| 20260510024514 | 51 | 6 | 0.0 | 0.0 | 0.00 | 0.22 | 0.22 | 83 | 1009.3 |
| 20260510024013 | 51 | 6 | 0.0 | 0.0 | 0.00 | 0.22 | 0.22 | 83 | 1009.2 |
| 20260510024007 | 60 | 191 | 0.0 | 0.0 | 0.00 | 0.15 | 0.15 | 77 | 1010.0 |
| 20260510023514 | 52 | 6 | 0.0 | 0.0 | 0.00 | 0.22 | 0.22 | 83 | 1009.3 |
| 20260510023504 | 60 | 191 | 0.0 | 0.0 | 0.00 | 0.15 | 0.15 | 77 | 1010.0 |
| 20260510023035 | 60 | 191 | 0.0 | 0.0 | 0.00 | 0.15 | 0.15 | 77 | 1009.9 |
| 20260510023013 | 52 | 6 | 0.0 | 0.0 | 0.00 | 0.22 | 0.22 | 83 | 1009.3 |
| 20260510022513 | 52 | 6 | 0.0 | 0.0 | 0.00 | 0.22 | 0.22 | 83 | 1009.4 |
| 20260510022507 | 60 | 243 | 0.0 | 0.0 | 0.00 | 0.15 | 0.15 | 77 | 1009.8 |
| 20260510022004 | 60 | 243 | 0.0 | 0.0 | 0.00 | 0.15 | 0.15 | 76 | 1009.8 |
| 20260510021513 | 51 | 4 | 0.0 | 0.0 | 0.00 | 0.22 | 0.22 | 83 | 1009.6 |
| 20260510021506 | 61 | 243 | 0.0 | 0.0 | 0.00 | 0.15 | 0.15 | 76 | 1009.7 |
| 20260510021012 | 51 | 6 | 0.0 | 0.0 | 0.00 | 0.22 | 0.22 | 83 | 1009.6 |
| 20260510021004 | 61 | 243 | 0.0 | 0.0 | 0.00 | 0.15 | 0.15 | 74 | 1009.6 |
| 20260510020513 | 51 | 10 | 0.0 | 0.0 | 0.00 | 0.22 | 0.22 | 83 | 1009.4 |
| 20260510020506 | 61 | 243 | 0.0 | 0.9 | 0.00 | 0.15 | 0.15 | 72 | 1009.5 |
| 20260510020019 | 51 | 360 | 0.0 | 0.0 | 0.00 | 0.22 | 0.22 | 83 | 1009.5 |
| 20260510020008 | 61 | 243 | 0.0 | 0.9 | 0.00 | 0.15 | 0.15 | 73 | 1009.5 |
| 20260510015514 | 51 | 360 | 0.0 | 0.0 | 0.00 | 0.22 | 0.22 | 82 | 1009.4 |
| 20260510015503 | 62 | 243 | 0.0 | 0.0 | 0.00 | 0.15 | 0.15 | 72 | 1009.4 |
| 20260510015019 | 51 | 10 | 0.0 | 0.0 | 0.00 | 0.22 | 0.22 | 82 | 1009.3 |
| 20260510015005 | 62 | 243 | 0.0 | 0.0 | 0.00 | 0.15 | 0.15 | 72 | 1009.4 |
| 20260510014512 | 51 | 360 | 0.0 | 0.0 | 0.00 | 0.22 | 0.22 | 82 | 1009.3 |
| 20260510014012 | 51 | 360 | 0.0 | 0.0 | 0.00 | 0.22 | 0.22 | 81 | 1009.3 |
| 20260510014006 | 62 | 243 | 0.0 | 0.0 | 0.00 | 0.15 | 0.15 | 70 | 1009.3 |
| 20260510013511 | 51 | 360 | 0.0 | 0.0 | 0.00 | 0.22 | 0.22 | 81 | 1009.4 |
| 20260510013020 | 62 | 243 | 0.0 | 0.9 | 0.00 | 0.15 | 0.15 | 70 | 1009.2 |
| 20260510013012 | 51 | 3 | 0.0 | 0.0 | 0.00 | 0.22 | 0.22 | 81 | 1009.3 |
| 20260510012510 | 51 | 3 | 0.0 | 0.0 | 0.00 | 0.22 | 0.22 | 81 | 1009.4 |
| 20260510012506 | 62 | 243 | 0.0 | 0.9 | 0.00 | 0.15 | 0.15 | 70 | 1009.1 |
| 20260510012011 | 63 | 243 | 0.0 | 0.0 | 0.00 | 0.15 | 0.15 | 70 | 1009.1 |
| 20260510011526 | 63 | 243 | 0.0 | 0.0 | 0.00 | 0.15 | 0.15 | 70 | 1009.0 |
| 20260510011515 | 52 | 3 | 0.0 | 0.0 | 0.00 | 0.22 | 0.22 | 81 | 1009.1 |
| 20260510011017 | 63 | 243 | 0.0 | 0.0 | 0.00 | 0.15 | 0.15 | 68 | 1008.9 |
| 20260510011011 | 52 | 3 | 0.0 | 0.0 | 0.00 | 0.22 | 0.22 | 81 | 1009.2 |
| 20260510010511 | 52 | 2 | 0.0 | 0.0 | 0.00 | 0.22 | 0.22 | 81 | 1009.1 |
| 20260510010504 | 64 | 243 | 0.0 | 0.9 | 0.00 | 0.15 | 0.15 | 67 | 1008.9 |
| 20260510010011 | 52 | 2 | 0.0 | 0.0 | 0.00 | 0.22 | 0.22 | 81 | 1009.0 |
| 20260510005510 | 52 | 2 | 0.0 | 0.0 | 0.00 | 0.22 | 0.22 | 81 | 1008.8 |
| 20260510005503 | 65 | 243 | 0.0 | 0.9 | 0.00 | 0.15 | 0.15 | 64 | 1008.7 |
| 20260510005009 | 52 | 2 | 0.0 | 0.0 | 0.00 | 0.22 | 0.22 | 81 | 1008.8 |
| 20260510005004 | 65 | 243 | 0.0 | 0.9 | 0.00 | 0.15 | 0.15 | 63 | 1008.6 |
| 20260510004511 | 66 | 243 | 0.0 | 0.9 | 0.00 | 0.15 | 0.15 | 63 | 1008.5 |
| 20260510004509 | 52 | 2 | 0.0 | 0.0 | 0.00 | 0.22 | 0.22 | 81 | 1008.9 |
| 20260510004011 | 52 | 2 | 0.0 | 0.0 | 0.00 | 0.22 | 0.22 | 81 | 1008.9 |
| 20260510004008 | 67 | 243 | 0.0 | 0.9 | 0.00 | 0.15 | 0.15 | 62 | 1008.5 |
| 20260510003509 | 53 | 2 | 0.0 | 0.0 | 0.00 | 0.22 | 0.22 | 81 | 1008.8 |
| 20260510003507 | 68 | 243 | 0.0 | 0.9 | 0.00 | 0.15 | 0.15 | 59 | 1008.3 |
| 20260510003014 | 69 | 243 | 0.0 | 0.9 | 0.00 | 0.15 | 0.15 | 57 | 1008.2 |
| 20260510003010 | 53 | 2 | 0.0 | 0.0 | 0.00 | 0.22 | 0.22 | 81 | 1008.8 |
| 20260510002510 | 53 | 3 | 0.0 | 0.0 | 0.00 | 0.22 | 0.22 | 81 | 1008.8 |
| 20260510002507 | 69 | 243 | 0.0 | 0.9 | 0.00 | 0.15 | 0.15 | 55 | 1008.2 |
| 20260510002008 | 70 | 247 | 0.0 | 0.9 | 0.00 | 0.15 | 0.15 | 54 | 1008.0 |
| 20260510001520 | 70 | 136 | 0.0 | 1.7 | 0.00 | 0.15 | 0.15 | 54 | 1007.9 |
| 20260510001508 | 53 | 2 | 0.0 | 0.0 | 0.00 | 0.22 | 0.22 | 81 | 1008.8 |
| 20260510001009 | 53 | 2 | 0.0 | 0.0 | 0.00 | 0.22 | 0.22 | 81 | 1008.9 |
| 20260510001006 | 71 | 136 | 0.0 | 2.6 | 0.00 | 0.15 | 0.15 | 51 | 1007.9 |
| 20260510000511 | 71 | 136 | 0.9 | 3.5 | 0.00 | 0.15 | 0.15 | 49 | 1007.8 |
| 20260510000509 | 54 | 2 | 0.0 | 0.0 | 0.00 | 0.22 | 0.22 | 81 | 1008.8 |
| 20260510000024 | 72 | 136 | 0.9 | 6.1 | 0.00 | 0.15 | 0.15 | 48 | 1007.7 |
| 20260510000015 | 54 | 2 | 0.0 | 0.0 | 0.00 | 0.22 | 0.22 | 81 | 1008.7 |
| 20260509235510 | 72 | 135 | 1.7 | 6.1 | 0.00 | 0.15 | 0.15 | 48 | 1007.5 |
| 20260509235508 | 54 | 2 | 0.0 | 0.0 | 0.00 | 0.22 | 0.22 | 81 | 1008.7 |
| 20260509235009 | 54 | 2 | 0.0 | 0.9 | 0.00 | 0.22 | 0.22 | 81 | 1008.7 |
| 20260509235006 | 72 | 285 | 0.0 | 5.2 | 0.00 | 0.15 | 0.15 | 49 | 1007.5 |
| 20260509234511 | 54 | 2 | 0.0 | 0.9 | 0.00 | 0.22 | 0.22 | 81 | 1008.8 |
| 20260509234508 | 72 | 121 | 0.9 | 5.2 | 0.00 | 0.15 | 0.15 | 48 | 1007.4 |
| 20260509234013 | 54 | 2 | 0.0 | 0.0 | 0.00 | 0.22 | 0.22 | 81 | 1008.6 |
| 20260509234002 | 72 | 125 | 0.0 | 3.5 | 0.00 | 0.15 | 0.15 | 47 | 1007.4 |
| 20260509233506 | 54 | 2 | 0.0 | 0.0 | 0.00 | 0.22 | 0.22 | 81 | 1008.5 |
| 20260509233012 | 73 | 13 | 0.9 | 4.3 | 0.00 | 0.15 | 0.15 | 46 | 1007.4 |
| 20260509233009 | 55 | 2 | 0.0 | 0.0 | 0.00 | 0.22 | 0.22 | 81 | 1008.4 |
| 20260509232509 | 55 | 2 | 0.0 | 0.9 | 0.00 | 0.22 | 0.22 | 81 | 1008.3 |
| 20260509232506 | 73 | 90 | 1.7 | 4.3 | 0.00 | 0.15 | 0.15 | 46 | 1007.5 |
| 20260509232007 | 73 | 134 | 0.9 | 5.2 | 0.00 | 0.15 | 0.15 | 46 | 1007.4 |
| 20260509231520 | 73 | 127 | 0.9 | 5.2 | 0.00 | 0.15 | 0.15 | 45 | 1007.4 |
| 20260509231508 | 55 | 61 | 0.0 | 0.0 | 0.00 | 0.22 | 0.22 | 81 | 1008.6 |
| 20260509231007 | 73 | 130 | 2.6 | 5.2 | 0.00 | 0.15 | 0.15 | 45 | 1007.4 |
| 20260509230507 | 73 | 128 | 0.9 | 5.2 | 0.00 | 0.15 | 0.15 | 45 | 1007.4 |
| 20260509230022 | 73 | 174 | 1.7 | 5.2 | 0.00 | 0.15 | 0.15 | 46 | 1007.3 |
| 20260509230014 | 55 | 61 | 0.0 | 0.9 | 0.00 | 0.22 | 0.22 | 81 | 1008.6 |
| 20260509225510 | 74 | 73 | 1.7 | 5.2 | 0.00 | 0.15 | 0.15 | 46 | 1007.3 |
| 20260509225506 | 55 | 61 | 0.0 | 0.9 | 0.00 | 0.22 | 0.22 | 81 | 1008.7 |
| 20260509225011 | 74 | 89 | 1.7 | 5.2 | 0.00 | 0.15 | 0.15 | 45 | 1007.2 |
| 20260509225005 | 55 | 61 | 0.0 | 0.9 | 0.01 | 0.22 | 0.22 | 81 | 1008.7 |
| 20260509224526 | 75 | 140 | 1.7 | 5.2 | 0.00 | 0.15 | 0.15 | 45 | 1007.3 |
| 20260509224505 | 55 | 61 | 0.0 | 0.0 | 0.02 | 0.22 | 0.22 | 81 | 1008.8 |
| 20260509224010 | 75 | 60 | 1.7 | 5.2 | 0.00 | 0.15 | 0.15 | 44 | 1007.4 |
| 20260509224005 | 55 | 61 | 0.0 | 0.0 | 0.05 | 0.22 | 0.22 | 81 | 1008.8 |
| 20260509223506 | 75 | 154 | 0.9 | 7.0 | 0.00 | 0.15 | 0.15 | 45 | 1007.2 |
| 20260509223010 | 75 | 127 | 2.6 | 7.0 | 0.00 | 0.15 | 0.15 | 44 | 1007.3 |
| 20260509223007 | 55 | 61 | 0.0 | 0.0 | 0.09 | 0.22 | 0.22 | 79 | 1008.8 |
| 20260509222506 | 76 | 114 | 1.7 | 7.0 | 0.00 | 0.15 | 0.15 | 45 | 1007.2 |
| 20260509222503 | 55 | 61 | 0.0 | 0.9 | 0.12 | 0.22 | 0.22 | 79 | 1008.8 |
| 20260509222006 | 76 | 138 | 0.9 | 5.2 | 0.00 | 0.15 | 0.15 | 46 | 1007.2 |
| 20260509221514 | 76 | 148 | 1.7 | 5.2 | 0.00 | 0.15 | 0.15 | 47 | 1007.2 |
| 20260509221503 | 55 | 21 | 0.0 | 0.9 | 0.14 | 0.22 | 0.22 | 79 | 1008.8 |
| 20260509221008 | 76 | 64 | 0.9 | 6.1 | 0.00 | 0.15 | 0.15 | 45 | 1007.2 |
| 20260509221003 | 55 | 21 | 0.0 | 0.9 | 0.16 | 0.22 | 0.22 | 79 | 1009.0 |
| 20260509220506 | 76 | 141 | 2.6 | 6.1 | 0.00 | 0.15 | 0.15 | 45 | 1007.3 |
| 20260509220503 | 55 | 21 | 0.0 | 0.0 | 0.18 | 0.22 | 0.22 | 77 | 1008.9 |
| 20260509220019 | 76 | 154 | 1.7 | 4.3 | 0.00 | 0.15 | 0.15 | 45 | 1007.2 |
| 20260509220001 | 55 | 21 | 0.0 | 0.0 | 0.18 | 0.22 | 0.22 | 76 | 1008.9 |
| 20260509215508 | 76 | 124 | 1.7 | 4.3 | 0.00 | 0.15 | 0.15 | 44 | 1007.3 |
| 20260509215502 | 55 | 21 | 0.0 | 0.0 | 0.18 | 0.22 | 0.22 | 75 | 1008.8 |
| 20260509215101 | 55 | 21 | 0.0 | 0.0 | 0.19 | 0.22 | 0.22 | 74 | 1009.2 |
| 20260509215009 | 75 | 134 | 1.7 | 4.3 | 0.00 | 0.15 | 0.15 | 44 | 1007.3 |
| 20260509214600 | 55 | 21 | 0.0 | 0.0 | 0.18 | 0.21 | 0.21 | 73 | 1009.3 |
| 20260509214523 | 75 | 136 | 1.7 | 3.5 | 0.00 | 0.15 | 0.15 | 45 | 1007.3 |
| 20260509214100 | 55 | 21 | 0.0 | 0.0 | 0.16 | 0.19 | 0.19 | 73 | 1009.1 |
| 20260509214009 | 75 | 134 | 0.9 | 5.2 | 0.00 | 0.15 | 0.15 | 46 | 1007.4 |
| 20260509213600 | 55 | 21 | 0.0 | 0.0 | 0.14 | 0.17 | 0.17 | 73 | 1009.3 |
| 20260509213508 | 75 | 125 | 0.9 | 7.8 | 0.00 | 0.15 | 0.15 | 46 | 1007.4 |
| 20260509213102 | 55 | 21 | 0.0 | 0.9 | 0.13 | 0.15 | 0.15 | 72 | 1009.2 |
| 20260509213026 | 75 | 86 | 2.6 | 7.8 | 0.00 | 0.15 | 0.15 | 44 | 1007.4 |
| 20260509212559 | 55 | 21 | 0.0 | 0.9 | 0.10 | 0.12 | 0.12 | 72 | 1009.1 |
| 20260509212512 | 76 | 132 | 1.7 | 5.2 | 0.00 | 0.15 | 0.15 | 45 | 1007.4 |
| 20260509212006 | 76 | 49 | 0.9 | 3.5 | 0.00 | 0.15 | 0.15 | 47 | 1007.4 |
| 20260509211606 | 55 | 21 | 0.0 | 0.0 | 0.07 | 0.09 | 0.09 | 71 | 1009.0 |
| 20260509211515 | 76 | 161 | 0.9 | 5.2 | 0.00 | 0.15 | 0.15 | 46 | 1007.4 |
| 20260509211058 | 55 | 21 | 0.0 | 0.0 | 0.05 | 0.07 | 0.07 | 70 | 1009.0 |
| 20260509211006 | 75 | 115 | 0.9 | 7.0 | 0.00 | 0.15 | 0.15 | 45 | 1007.5 |
| 20260509210558 | 55 | 360 | 0.0 | 1.7 | 0.03 | 0.05 | 0.05 | 70 | 1009.3 |
| 20260509210508 | 75 | 107 | 0.9 | 7.0 | 0.00 | 0.15 | 0.15 | 45 | 1007.6 |
| 20260509210056 | 56 | 360 | 0.0 | 1.7 | 0.02 | 0.04 | 0.04 | 70 | 1009.2 |
| 20260509210017 | 76 | 124 | 1.7 | 7.0 | 0.00 | 0.15 | 0.15 | 47 | 1007.5 |
| 20260509205557 | 56 | 360 | 0.0 | 1.7 | 0.02 | 0.04 | 0.04 | 69 | 1009.1 |
| 20260509205506 | 76 | 127 | 3.5 | 7.0 | 0.00 | 0.15 | 0.15 | 46 | 1007.6 |
| 20260509205057 | 56 | 360 | 0.0 | 1.7 | 0.02 | 0.04 | 0.04 | 69 | 1008.8 |
| 20260509205012 | 75 | 162 | 2.6 | 8.7 | 0.00 | 0.15 | 0.15 | 48 | 1007.5 |
| 20260509204557 | 56 | 360 | 0.0 | 1.7 | 0.01 | 0.03 | 0.03 | 69 | 1008.8 |
| 20260509204521 | 75 | 224 | 3.5 | 8.7 | 0.00 | 0.15 | 0.15 | 50 | 1007.5 |
| 20260509204057 | 56 | 33 | 0.0 | 2.6 | 0.01 | 0.03 | 0.03 | 69 | 1009.2 |
| 20260509204007 | 75 | 139 | 1.7 | 7.0 | 0.00 | 0.15 | 0.15 | 48 | 1007.5 |
| 20260509203555 | 56 | 360 | 0.0 | 2.6 | 0.02 | 0.03 | 0.03 | 69 | 1009.0 |
| 20260509203510 | 75 | 129 | 1.7 | 7.0 | 0.00 | 0.15 | 0.15 | 49 | 1007.6 |
| 20260509203104 | 56 | 360 | 0.0 | 0.9 | 0.02 | 0.03 | 0.03 | 68 | 1009.1 |
| 20260509203038 | 75 | 46 | 0.9 | 5.2 | 0.00 | 0.15 | 0.15 | 46 | 1007.6 |